Overview Statistics Trail Chart Weather Telemetry Raw packets
 

This is the latest recevied weather packets stored in our database for station/object KB4RFE. If no packets are shown the sender has not sent any weather packets the latest 10 day(s).

<< 25 26 27 28 29 30 31 >>
Time Temp. Humidity Pressure Rain* Wind** Luminosity Snow
1788456409 32.22° C 73% 1020.5 hPa 0 mm - 803 W/m² -
1788456104 32.78° C 71% 1020.6 hPa 0 mm - 805 W/m² -
1788455804 32.78° C 71% 1020.7 hPa 0 mm - 805 W/m² -
1788455500 33.89° C 68% 1020.6 hPa 0 mm - 801 W/m² -
1788455199 34.44° C 66% 1020.6 hPa 0 mm - 797 W/m² -
1788454895 33.89° C 67% 1020.8 hPa 0 mm - 794 W/m² -
1788454592 34.44° C 65% 1021.1 hPa 0 mm - 790 W/m² -
1788454287 34.44° C 65% 1021 hPa 0 mm - 788 W/m² -
1788453982 34.44° C 64% 1021.3 hPa 0 mm - 783 W/m² -
1788453679 33.89° C 66% 1020.9 hPa 0 mm - 778 W/m² -
1788453378 34.44° C 66% 1021.1 hPa 0 mm - 773 W/m² -
1788453074 33.89° C 67% 1021.1 hPa 0 mm - 767 W/m² -
1788452771 33.89° C 65% 1021.2 hPa 0 mm - 762 W/m² -
1788452466 33.89° C 69% 1021 hPa 0 mm - 759 W/m² -
1788452161 33.89° C 67% 1021.1 hPa 0 mm - 745 W/m² -
1788451857 33.33° C 68% 1021.2 hPa 0 mm - 753 W/m² -
1788451556 33.33° C 69% 1021.1 hPa 0 mm - 750 W/m² -
1788451251 33.33° C 69% 1021.2 hPa 0 mm - 738 W/m² -
1788450949 33.33° C 67% 1021.2 hPa 0 mm - 740 W/m² -
1788450645 33.89° C 67% 1021.2 hPa 0 mm - 737 W/m² -
1788450341 33.89° C 68% 1021.3 hPa 0 mm - 746 W/m² -
1788450037 33.33° C 70% 1021.2 hPa 0 mm - 733 W/m² -
1788449732 33.33° C 70% 1021.2 hPa 0 mm - 805 W/m² -
1788449428 32.78° C 70% 1021.5 hPa 0 mm - 717 W/m² -
1788449124 33.33° C 68% 1021.2 hPa 0 mm - 711 W/m² -

* Rain latest hour (hover to see other rain measurements)
** Current wind speed in m/s (hover to see current wind gust speed)